Time,TemperatureF,DewpointF,PressureIn,WindDirection,WindDirectionDegrees,WindSpeedMPH,WindSpeedGustMPH,Humidity,HourlyPrecipIn,Conditions,Clouds,dailyrainin,SoftwareType,DateUTC
2013-02-17 00:02:00,36.0,33.0,30.27,NW,317,0.0,0.0,90,0.00,,,0.00,,2013-02-17 06:02:00,
2013-02-17 00:11:00,36.0,33.0,30.27,NW,317,0.0,0.0,90,0.00,,,0.00,,2013-02-17 06:11:00,
2013-02-17 00:21:00,35.0,32.0,30.27,NW,317,0.0,0.0,89,0.00,,,0.00,,2013-02-17 06:21:00,
2013-02-17 00:31:00,35.0,32.0,30.27,NW,317,0.0,0.0,89,0.00,,,0.00,,2013-02-17 06:31:00,
2013-02-17 00:41:00,35.0,32.0,30.27,NW,317,0.0,0.0,89,0.00,,,0.00,,2013-02-17 06:41:00,
2013-02-17 00:52:00,36.0,33.0,30.26,NW,317,0.0,0.0,88,0.00,,,0.00,,2013-02-17 06:52:00,
2013-02-17 01:01:00,36.0,33.0,30.26,NW,317,0.0,0.0,89,0.00,,,0.00,,2013-02-17 07:01:00,
2013-02-17 01:11:00,35.0,32.0,30.27,NW,317,0.0,0.0,89,0.00,,,0.00,,2013-02-17 07:11:00,
2013-02-17 01:21:00,35.0,32.0,30.27,NW,317,0.0,0.0,89,0.00,,,0.00,,2013-02-17 07:21:00,
2013-02-17 01:31:00,35.0,32.0,30.27,NW,317,0.0,0.0,89,0.00,,,0.00,,2013-02-17 07:31:00,
2013-02-17 01:41:00,35.0,32.0,30.27,NW,317,0.0,0.0,89,0.00,,,0.00,,2013-02-17 07:41:00,
2013-02-17 01:52:00,35.0,32.0,30.26,NW,317,0.0,0.0,89,0.00,,,0.00,,2013-02-17 07:52:00,
2013-02-17 02:01:00,35.0,32.0,30.26,NW,317,0.0,0.0,89,0.00,,,0.00,,2013-02-17 08:01:00,
2013-02-17 02:11:00,35.0,32.0,30.26,NW,317,0.0,0.0,89,0.00,,,0.00,,2013-02-17 08:11:00,
2013-02-17 02:21:00,34.0,31.0,30.26,NW,317,0.0,0.0,89,0.00,,,0.00,,2013-02-17 08:21:00,
2013-02-17 02:31:00,34.0,31.0,30.26,NW,317,0.0,0.0,89,0.00,,,0.00,,2013-02-17 08:31:00,
2013-02-17 02:42:00,34.0,31.0,30.26,NW,317,0.0,0.0,89,0.00,,,0.00,,2013-02-17 08:42:00,
2013-02-17 02:52:00,34.0,31.0,30.25,NW,317,0.0,0.0,89,0.00,,,0.00,,2013-02-17 08:52:00,
2013-02-17 03:01:00,34.0,31.0,30.25,NW,317,0.0,0.0,89,0.00,,,0.00,,2013-02-17 09:01:00,
2013-02-17 03:11:00,34.0,31.0,30.25,NW,317,0.0,0.0,89,0.00,,,0.00,,2013-02-17 09:11:00,
2013-02-17 03:21:00,34.0,31.0,30.25,NW,317,0.0,0.0,89,0.00,,,0.00,,2013-02-17 09:21:00,
2013-02-17 03:31:00,34.0,31.0,30.25,NW,317,0.0,0.0,89,0.00,,,0.00,,2013-02-17 09:31:00,
2013-02-17 03:41:00,34.0,31.0,30.25,NW,317,0.0,0.0,89,0.00,,,0.00,,2013-02-17 09:41:00,
2013-02-17 03:52:00,34.0,31.0,30.25,NW,317,0.0,0.0,89,0.00,,,0.00,,2013-02-17 09:52:00,
2013-02-17 04:01:00,34.0,31.0,30.25,NW,317,0.0,0.0,89,0.00,,,0.00,,2013-02-17 10:01:00,
2013-02-17 04:11:00,34.0,31.0,30.25,NW,317,0.0,0.0,89,0.00,,,0.00,,2013-02-17 10:11:00,
2013-02-17 04:21:00,34.0,31.0,30.25,NW,317,0.0,0.0,89,0.00,,,0.00,,2013-02-17 10:21:00,
2013-02-17 04:31:00,34.0,31.0,30.25,NW,317,0.0,0.0,89,0.00,,,0.00,,2013-02-17 10:31:00,
2013-02-17 04:41:00,34.0,31.0,30.25,NW,317,0.0,0.0,89,0.00,,,0.00,,2013-02-17 10:41:00,
2013-02-17 04:52:00,34.0,31.0,30.25,NW,317,0.0,0.0,88,0.00,,,0.00,,2013-02-17 10:52:00,
2013-02-17 05:01:00,34.0,31.0,30.25,NW,317,0.0,0.0,89,0.00,,,0.00,,2013-02-17 11:01:00,
2013-02-17 05:11:00,34.0,31.0,30.25,NW,317,0.0,0.0,89,0.00,,,0.00,,2013-02-17 11:11:00,
2013-02-17 05:21:00,34.0,31.0,30.25,NW,317,0.0,0.0,89,0.00,,,0.00,,2013-02-17 11:21:00,
2013-02-17 05:32:00,34.0,31.0,30.25,NW,317,0.0,0.0,88,0.00,,,0.00,,2013-02-17 11:32:00,
2013-02-17 05:42:00,34.0,31.0,30.25,NW,317,0.0,0.0,88,0.00,,,0.00,,2013-02-17 11:42:00,
2013-02-17 05:52:00,34.0,31.0,30.26,NW,317,0.0,0.0,88,0.00,,,0.00,,2013-02-17 11:52:00,
2013-02-17 06:03:00,34.0,31.0,30.25,NW,317,0.0,0.0,88,0.00,,,0.00,,2013-02-17 12:03:00,
2013-02-17 06:11:00,34.0,31.0,30.25,NW,317,0.0,0.0,88,0.00,,,0.00,,2013-02-17 12:11:00,
2013-02-17 06:22:00,34.0,31.0,30.25,NW,317,0.0,0.0,88,0.00,,,0.00,,2013-02-17 12:22:00,
2013-02-17 06:32:00,34.0,31.0,30.25,NW,317,0.0,0.0,88,0.00,,,0.00,,2013-02-17 12:32:00,
2013-02-17 06:42:00,34.0,31.0,30.25,NW,317,0.0,0.0,88,0.00,,,0.00,,2013-02-17 12:42:00,
2013-02-17 06:52:00,34.0,31.0,30.26,NW,317,0.0,0.0,88,0.00,,,0.00,,2013-02-17 12:52:00,
2013-02-17 07:02:00,34.0,31.0,30.26,NW,317,0.0,0.0,88,0.00,,,0.00,,2013-02-17 13:02:00,
2013-02-17 07:12:00,34.0,31.0,30.26,NW,317,0.0,0.0,88,0.00,,,0.00,,2013-02-17 13:12:00,
2013-02-17 07:21:00,34.0,31.0,30.26,NW,317,0.0,0.0,88,0.00,,,0.00,,2013-02-17 13:21:00,
2013-02-17 07:32:00,35.0,32.0,30.26,NW,317,0.0,0.0,88,0.00,,,0.00,,2013-02-17 13:32:00,
2013-02-17 07:41:00,35.0,32.0,30.26,NW,317,0.0,0.0,88,0.00,,,0.00,,2013-02-17 13:41:00,
2013-02-17 07:52:00,36.0,33.0,30.26,NW,317,0.0,0.0,87,0.00,,,0.00,,2013-02-17 13:52:00,
2013-02-17 08:01:00,39.0,36.0,30.27,NW,317,0.0,0.0,88,0.00,,,0.00,,2013-02-17 14:01:00,
2013-02-17 08:11:00,39.0,36.0,30.27,NW,317,0.0,0.0,88,0.00,,,0.00,,2013-02-17 14:11:00,
2013-02-17 08:21:00,43.0,40.0,30.27,NW,317,0.0,0.0,88,0.00,,,0.00,,2013-02-17 14:21:00,
2013-02-17 08:32:00,47.0,43.0,30.27,NW,317,0.0,4.0,87,0.00,,,0.00,,2013-02-17 14:32:00,
2013-02-17 08:53:00,50.0,46.0,30.27,SW,224,2.0,6.0,87,0.00,,,0.00,,2013-02-17 14:53:00,
2013-02-17 09:02:00,53.0,47.0,30.27,SSE,150,1.0,6.0,81,0.00,,,0.00,,2013-02-17 15:02:00,
2013-02-17 09:21:00,55.0,47.0,30.28,SSE,147,3.0,5.0,75,0.00,,,0.00,,2013-02-17 15:21:00,
2013-02-17 09:32:00,57.0,48.0,30.27,SE,144,4.0,7.0,72,0.00,,,0.00,,2013-02-17 15:32:00,
2013-02-17 09:52:00,58.0,47.0,30.27,SSE,147,4.0,7.0,67,0.00,,,0.00,,2013-02-17 15:52:00,
2013-02-17 10:01:00,59.0,48.0,30.27,SSE,148,6.0,9.0,67,0.00,,,0.00,,2013-02-17 16:01:00,
2013-02-17 10:21:00,61.0,50.0,30.27,SE,144,5.0,9.0,66,0.00,,,0.00,,2013-02-17 16:21:00,
2013-02-17 10:32:00,62.0,50.0,30.27,South,183,6.0,9.0,64,0.00,,,0.00,,2013-02-17 16:32:00,
2013-02-17 10:52:00,63.0,50.0,30.27,SSE,150,6.0,10.0,63,0.00,,,0.00,,2013-02-17 16:52:00,
2013-02-17 11:02:00,64.0,49.0,30.26,South,177,8.0,14.0,59,0.00,,,0.00,,2013-02-17 17:02:00,
2013-02-17 11:11:00,64.0,49.0,30.26,South,177,8.0,14.0,59,0.00,,,0.00,,2013-02-17 17:11:00,
2013-02-17 11:21:00,65.0,49.0,30.26,SSE,153,7.0,13.0,57,0.00,,,0.00,,2013-02-17 17:21:00,
2013-02-17 11:32:00,66.0,49.0,30.25,SSW,202,5.0,11.0,54,0.00,,,0.00,,2013-02-17 17:32:00,
2013-02-17 11:41:00,66.0,49.0,30.25,SSW,202,5.0,11.0,54,0.00,,,0.00,,2013-02-17 17:41:00,
2013-02-17 11:52:00,67.0,49.0,30.24,South,179,5.0,13.0,53,0.00,,,0.00,,2013-02-17 17:52:00,
2013-02-17 12:02:00,67.0,48.0,30.24,South,187,6.0,14.0,51,0.00,,,0.00,,2013-02-17 18:02:00,
2013-02-17 12:11:00,67.0,48.0,30.24,South,187,6.0,14.0,51,0.00,,,0.00,,2013-02-17 18:11:00,
2013-02-17 12:22:00,68.0,49.0,30.23,South,182,5.0,16.0,50,0.00,,,0.00,,2013-02-17 18:22:00,
2013-02-17 12:33:00,68.0,46.0,30.22,WSW,257,5.0,11.0,46,0.00,,,0.00,,2013-02-17 18:33:00,
2013-02-17 12:42:00,68.0,46.0,30.22,WSW,257,5.0,11.0,46,0.00,,,0.00,,2013-02-17 18:42:00,
2013-02-17 12:52:00,68.0,47.0,30.22,SW,223,5.0,14.0,47,0.00,,,0.00,,2013-02-17 18:52:00,
2013-02-17 13:01:00,69.0,50.0,30.20,SSW,206,4.0,11.0,51,0.00,,,0.00,,2013-02-17 19:01:00,
2013-02-17 13:21:00,69.0,51.0,30.20,South,182,9.0,14.0,52,0.00,,,0.00,,2013-02-17 19:21:00,
2013-02-17 13:32:00,69.0,48.0,30.19,WSW,246,6.0,12.0,47,0.00,,,0.00,,2013-02-17 19:32:00,
2013-02-17 13:42:00,69.0,48.0,30.19,WSW,246,6.0,12.0,47,0.00,,,0.00,,2013-02-17 19:42:00,
2013-02-17 13:52:00,69.0,48.0,30.19,SSW,212,7.0,13.0,48,0.00,,,0.00,,2013-02-17 19:52:00,
2013-02-17 14:02:00,69.0,47.0,30.18,SSW,196,9.0,15.0,46,0.00,,,0.00,,2013-02-17 20:02:00,
2013-02-17 14:11:00,69.0,47.0,30.18,SSW,196,9.0,15.0,46,0.00,,,0.00,,2013-02-17 20:11:00,
2013-02-17 14:21:00,69.0,48.0,30.17,South,182,8.0,18.0,47,0.00,,,0.00,,2013-02-17 20:21:00,
2013-02-17 14:32:00,69.0,50.0,30.17,South,179,7.0,14.0,50,0.00,,,0.00,,2013-02-17 20:32:00,
2013-02-17 14:52:00,68.0,50.0,30.17,SSW,202,9.0,17.0,53,0.00,,,0.00,,2013-02-17 20:52:00,
2013-02-17 15:01:00,68.0,50.0,30.16,SW,216,8.0,17.0,52,0.00,,,0.00,,2013-02-17 21:01:00,
2013-02-17 15:21:00,68.0,51.0,30.16,South,184,9.0,16.0,54,0.00,,,0.00,,2013-02-17 21:21:00,
2013-02-17 15:31:00,67.0,50.0,30.16,SSW,199,8.0,17.0,54,0.00,,,0.00,,2013-02-17 21:31:00,
2013-02-17 16:01:00,67.0,49.0,30.15,South,183,8.0,15.0,52,0.00,,,0.00,,2013-02-17 22:01:00,
2013-02-17 16:12:00,67.0,49.0,30.15,South,183,8.0,15.0,52,0.00,,,0.00,,2013-02-17 22:12:00,
2013-02-17 16:21:00,67.0,48.0,30.15,South,184,7.0,14.0,51,0.00,,,0.00,,2013-02-17 22:21:00,
2013-02-17 16:32:00,67.0,48.0,30.15,South,188,10.0,17.0,50,0.00,,,0.00,,2013-02-17 22:32:00,
2013-02-17 16:42:00,67.0,48.0,30.15,South,188,10.0,17.0,50,0.00,,,0.00,,2013-02-17 22:42:00,
2013-02-17 16:52:00,66.0,48.0,30.15,SSW,198,6.0,15.0,52,0.00,,,0.00,,2013-02-17 22:52:00,
2013-02-17 17:02:00,66.0,50.0,30.15,SSW,204,7.0,13.0,56,0.00,,,0.00,,2013-02-17 23:02:00,
2013-02-17 17:21:00,65.0,50.0,30.15,South,178,6.0,14.0,59,0.00,,,0.00,,2013-02-17 23:21:00,
2013-02-17 17:32:00,64.0,50.0,30.15,South,184,8.0,16.0,60,0.00,,,0.00,,2013-02-17 23:32:00,
2013-02-17 17:42:00,64.0,50.0,30.15,South,184,8.0,16.0,60,0.00,,,0.00,,2013-02-17 23:42:00,
2013-02-17 17:52:00,63.0,50.0,30.15,South,185,7.0,13.0,62,0.00,,,0.00,,2013-02-17 23:52:00,
2013-02-17 18:01:00,63.0,50.0,30.15,SSW,192,7.0,12.0,63,0.00,,,0.00,,2013-02-18 00:01:00,
2013-02-17 18:11:00,63.0,50.0,30.15,SSW,192,7.0,12.0,63,0.00,,,0.00,,2013-02-18 00:11:00,
2013-02-17 18:22:00,62.0,50.0,30.14,South,186,5.0,9.0,65,0.00,,,0.00,,2013-02-18 00:22:00,
2013-02-17 18:31:00,61.0,50.0,30.14,South,179,4.0,10.0,66,0.00,,,0.00,,2013-02-18 00:31:00,
2013-02-17 18:41:00,61.0,50.0,30.14,South,179,4.0,10.0,66,0.00,,,0.00,,2013-02-18 00:41:00,
2013-02-17 18:52:00,60.0,49.0,30.14,South,170,3.0,9.0,68,0.00,,,0.00,,2013-02-18 00:52:00,
2013-02-17 19:01:00,59.0,49.0,30.14,SSE,163,1.0,5.0,69,0.00,,,0.00,,2013-02-18 01:01:00,
2013-02-17 19:11:00,59.0,49.0,30.14,SSE,163,1.0,5.0,69,0.00,,,0.00,,2013-02-18 01:11:00,
2013-02-17 19:21:00,58.0,49.0,30.14,SSE,163,2.0,5.0,72,0.00,,,0.00,,2013-02-18 01:21:00,
2013-02-17 19:31:00,58.0,50.0,30.14,SSE,163,2.0,5.0,74,0.00,,,0.00,,2013-02-18 01:31:00,
2013-02-17 19:41:00,58.0,50.0,30.14,SSE,163,2.0,5.0,74,0.00,,,0.00,,2013-02-18 01:41:00,
2013-02-17 19:52:00,58.0,50.0,30.14,SSE,163,3.0,6.0,75,0.00,,,0.00,,2013-02-18 01:52:00,
2013-02-17 20:01:00,58.0,50.0,30.14,SSE,166,2.0,7.0,75,0.00,,,0.00,,2013-02-18 02:01:00,
2013-02-17 20:11:00,58.0,50.0,30.14,SSE,166,2.0,7.0,75,0.00,,,0.00,,2013-02-18 02:11:00,
2013-02-17 20:21:00,57.0,50.0,30.14,SSE,166,1.0,4.0,77,0.00,,,0.00,,2013-02-18 02:21:00,
2013-02-17 20:32:00,57.0,50.0,30.14,SSE,165,1.0,5.0,78,0.00,,,0.00,,2013-02-18 02:32:00,
2013-02-17 20:41:00,57.0,50.0,30.14,SSE,165,1.0,5.0,78,0.00,,,0.00,,2013-02-18 02:41:00,
2013-02-17 20:52:00,56.0,50.0,30.14,SSE,165,1.0,3.0,80,0.00,,,0.00,,2013-02-18 02:52:00,
2013-02-17 21:01:00,56.0,50.0,30.15,SSE,165,0.0,3.0,81,0.00,,,0.00,,2013-02-18 03:01:00,
2013-02-17 21:11:00,56.0,50.0,30.15,SSE,165,0.0,3.0,81,0.00,,,0.00,,2013-02-18 03:11:00,
2013-02-17 21:21:00,55.0,49.0,30.15,SSE,165,0.0,2.0,81,0.00,,,0.00,,2013-02-18 03:21:00,
2013-02-17 21:31:00,55.0,50.0,30.15,SSE,165,0.0,1.0,83,0.00,,,0.00,,2013-02-18 03:31:00,
2013-02-17 21:42:00,55.0,50.0,30.15,SSE,165,0.0,1.0,83,0.00,,,0.00,,2013-02-18 03:42:00,
2013-02-17 21:52:00,55.0,50.0,30.15,SSE,165,0.0,1.0,84,0.00,,,0.00,,2013-02-18 03:52:00,
2013-02-17 22:01:00,55.0,50.0,30.15,SSE,165,0.0,3.0,84,0.00,,,0.00,,2013-02-18 04:01:00,
2013-02-17 22:11:00,55.0,50.0,30.15,SSE,165,0.0,3.0,84,0.00,,,0.00,,2013-02-18 04:11:00,
2013-02-17 22:21:00,55.0,50.0,30.14,SSE,165,3.0,5.0,84,0.00,,,0.00,,2013-02-18 04:21:00,
2013-02-17 22:32:00,56.0,51.0,30.14,SSE,166,3.0,6.0,83,0.00,,,0.00,,2013-02-18 04:32:00,
2013-02-17 22:41:00,56.0,51.0,30.14,SSE,166,3.0,6.0,83,0.00,,,0.00,,2013-02-18 04:41:00,
2013-02-17 22:51:00,56.0,51.0,30.14,SSE,165,2.0,8.0,82,0.00,,,0.00,,2013-02-18 04:51:00,
2013-02-17 23:02:00,56.0,51.0,30.14,SSE,165,3.0,7.0,82,0.00,,,0.00,,2013-02-18 05:02:00,
2013-02-17 23:11:00,56.0,51.0,30.14,SSE,165,3.0,7.0,82,0.00,,,0.00,,2013-02-18 05:11:00,
2013-02-17 23:21:00,56.0,50.0,30.14,SSE,163,1.0,6.0,81,0.00,,,0.00,,2013-02-18 05:21:00,
2013-02-17 23:31:00,56.0,51.0,30.14,SSE,163,1.0,5.0,82,0.00,,,0.00,,2013-02-18 05:31:00,
2013-02-17 23:41:00,56.0,51.0,30.14,SSE,163,1.0,5.0,82,0.00,,,0.00,,2013-02-18 05:41:00,
2013-02-17 23:52:00,56.0,51.0,30.13,SSE,163,1.0,6.0,82,0.00,,,0.00,,2013-02-18 05:52:00,